Happy Valentine's Day! 

Flight Track Log - Related Links

Times and Time Zones

All times are in EDT time to prevent confusion due to time zone crossing. See the USC105 flight status page for this flight to view local times or setup timezone preferences in your user account.


Time Position Orientation Groundspeed Altitude Reporting Facility
EDT Latitude Longitude Course Direction KTS MPH feet Rate Location/Type
Thu 07:00:00 AM 41.5978 -83.3576 169° South  Level FlightAware Approximate
Thu 07:01:00 AM 41.5486 -83.3452 169° South  Level FlightAware Approximate
Thu 07:02:00 AM 41.4993 -83.3329 169° South  Level FlightAware Approximate
Thu 07:03:00 AM 41.4501 -83.3205 169° South  Level FlightAware Approximate
Thu 07:04:00 AM 41.4009 -83.3082 169° South  Level FlightAware Approximate
Thu 07:05:00 AM 41.3517 -83.2959 169° South  Level FlightAware Approximate
Thu 07:05:33 AM 41.3769 -83.4003 169° South 211 243 9,000  Level Cleveland Center
Thu 07:06:00 AM 41.3024 -83.2836 169° South  Level FlightAware Approximate
Thu 07:06:33 AM 41.3211 -83.3839 168° South 206 237 9,000  Level Cleveland Center
Thu 07:07:00 AM 41.2532 -83.2714 169° South  Level FlightAware Approximate
Thu 07:07:33 AM 41.2714 -83.3653 164° South 206 237 9,000  Level Cleveland Center
Thu 07:08:00 AM 41.2040 -83.2591 169° South  Level FlightAware Approximate
Thu 07:08:33 AM 41.2136 -83.3489 168° South 211 243 9,000  Level Cleveland Center
Thu 07:09:00 AM 41.1547 -83.2469 169° South  Level FlightAware Approximate
Thu 07:09:33 AM 41.1536 -83.3300 167° South 211 243 9,000  Level Cleveland Center
Thu 07:10:33 AM 41.0975 -83.3139 168° South 206 237 9,000  Level Cleveland Center
Thu 07:11:33 AM 41.0417 -83.2978 168° South 206 237 9,000  Level Cleveland Center
Thu 07:12:33 AM 40.9858 -83.2789 166° South 206 237 9,000  Level Cleveland Center
Thu 07:13:33 AM 40.9322 -83.2600 165° South 201 231 9,000  Level Cleveland Center
Thu 07:14:33 AM 40.8761 -83.2469 170° South 201 231 9,000  Level Cleveland Center
Thu 07:15:33 AM 40.8203 -83.2308 168° South 201 231 9,000  Level Cleveland Center
Thu 07:16:33 AM 40.7664 -83.2150 167° South 201 231 9,000  Level Cleveland Center
Thu 07:17:33 AM 40.7106 -83.1964 166° South 201 231 9,000 25 Level Cleveland Center
Thu 07:19:00 AM 40.6398 -83.1749 167° South  Level Estimated
Thu 07:20:33 AM 40.5494 -83.1478 167° South 206 237 9,100  Level Indianapolis Center
Thu 07:21:09 AM 40.5083 -83.1356 167° South 208 239 9,100  Level Indianapolis Center
Thu 07:21:34 AM 40.4939 -83.1319 169° South 205 236 9,100  Level Indianapolis Center
Thu 07:22:10 AM 40.4531 -83.1181 165° South 204 235 9,100  Level Indianapolis Center
Thu 07:22:36 AM 40.4375 -83.1142 169° South 206 237 9,100  Level Indianapolis Center
Thu 07:23:10 AM 40.3997 -83.1036 168° South 201 231 9,100  Level Indianapolis Center
Thu 07:23:37 AM 40.3739 -83.0958 167° South 200 230 9,100  Level Indianapolis Center
Thu 07:24:11 AM 40.3442 -83.0889 170° South 201 231 9,100  Level Indianapolis Center
Thu 07:24:38 AM 40.3181 -83.0797 165° South 202 232 9,100  Level Indianapolis Center
Thu 07:25:18 AM 40.2825 -83.0706 169° South 196 226 9,100  Level Indianapolis Center
Thu 07:25:40 AM 40.2658 -83.0636 162° South 194 223 9,100  Level Indianapolis Center
Thu 07:26:12 AM 40.2358 -83.0517 163° South 191 220 9,100 -197 Level Indianapolis Center
Thu 07:26:41 AM 40.2136 -83.0381 155° Southeast 197 227 8,900 -655 Descending Indianapolis Center
Thu 07:27:07 AM 40.1875 -83.0214 154° Southeast 206 237 8,500 -885 Descending Indianapolis Center
Thu 07:27:42 AM 40.1600 -83.0058 157° South 209 241 8,000 -873 Descending Indianapolis Center
Thu 07:28:02 AM 40.1414 -82.9942 154° Southeast 216 249 7,700 -871 Descending Indianapolis Center
Thu 07:28:44 AM 40.1053 -82.9714 154° Southeast 214 246 7,100 -900 Descending Indianapolis Center
Thu 07:29:02 AM 40.0850 -82.9606 158° South 216 249 6,800 -787 Descending Indianapolis Center
Thu 07:29:45 AM 40.0508 -82.9369 152° Southeast 215 247 6,300 -689 Descending Indianapolis Center
Thu 07:30:03 AM 40.0303 -82.9325 171° South 209 241 6,100 -677 Descending Indianapolis Center
Thu 07:30:47 AM 39.9944 -82.9242 170° South 202 232 5,600 -689 Descending Indianapolis Center
Thu 07:31:04 AM 39.9767 -82.9208 172° South 197 227 5,400 -1,082 Descending Indianapolis Center
Thu 07:31:48 AM 39.9381 -82.9089 167° South 203 234 4,500 -1,400 Descending Indianapolis Center
Thu 07:32:04 AM 39.9217 -82.9008 159° South 216 249 4,000 -1,377 Descending Indianapolis Center
Thu 07:32:49 AM 39.8811 -82.8786 157° South 216 249 3,100 -1,164 Descending Indianapolis Center
Thu 07:33:11 AM 39.8583 -82.8775 178° South 212 244 2,700 -1,355 Descending Indianapolis Center
Thu 07:33:51 AM 39.8397 -82.8953 216° Southwest 182 209 1,700 -1,574 Descending Indianapolis Center
Thu 07:34:12 AM 39.8289 -82.9094 225° Southwest 116 133 1,100 -492 Descending Indianapolis Center
Thu 07:34:52 AM 39.8117 -82.9331 226° Southwest 163 188 1,200 150 Climbing Indianapolis Center
Thu 07:36:00 AM 39.8138 -82.9278 168° South  Level Estimated

Login

Don't have an account? Register now (free) for customized features, flight alerts, and more!